createdAt,value
2019-01-08T00:00:30.362Z,1007.9
2019-01-08T00:01:31.732Z,1007.9
2019-01-08T00:02:33.090Z,1007.9
2019-01-08T00:03:34.513Z,1007.9
2019-01-08T00:04:35.885Z,1007.9
2019-01-08T00:05:37.249Z,1008.0
2019-01-08T00:06:38.615Z,1007.9
2019-01-08T00:07:39.989Z,1007.9
2019-01-08T00:08:41.361Z,1007.9
2019-01-08T00:09:42.731Z,1007.9
2019-01-08T00:10:44.094Z,1007.8
2019-01-08T00:11:45.455Z,1007.7
2019-01-08T00:12:46.819Z,1007.8
2019-01-08T00:13:48.186Z,1007.8
2019-01-08T00:14:49.553Z,1007.8
2019-01-08T00:15:50.922Z,1007.9
2019-01-08T00:16:52.287Z,1007.8
2019-01-08T00:17:53.650Z,1008.0
2019-01-08T00:18:55.016Z,1007.9
2019-01-08T00:19:56.379Z,1007.9
2019-01-08T00:20:57.745Z,1007.8
2019-01-08T00:21:59.118Z,1007.9
2019-01-08T00:23:00.480Z,1007.9
2019-01-08T00:24:01.853Z,1008.0
2019-01-08T00:25:03.221Z,1008.0
2019-01-08T00:26:04.585Z,1008.0
2019-01-08T00:27:05.963Z,1008.0
2019-01-08T00:28:07.344Z,1007.9
2019-01-08T00:29:08.691Z,1007.9
2019-01-08T00:30:10.051Z,1008.0
2019-01-08T00:31:11.419Z,1008.0
2019-01-08T00:32:12.796Z,1007.9
2019-01-08T00:33:14.160Z,1007.9
2019-01-08T00:34:15.515Z,1007.9
2019-01-08T00:35:16.884Z,1007.8
2019-01-08T00:36:18.244Z,1007.8
2019-01-08T00:37:19.621Z,1007.9
2019-01-08T00:38:21.005Z,1007.9
2019-01-08T00:39:22.366Z,1007.8
2019-01-08T00:40:23.748Z,1007.8
2019-01-08T00:41:25.133Z,1007.8
2019-01-08T00:42:26.499Z,1007.8
2019-01-08T00:43:27.849Z,1007.8
2019-01-08T00:44:29.219Z,1007.8
2019-01-08T00:45:30.597Z,1007.8
2019-01-08T00:46:31.956Z,1007.8
2019-01-08T00:47:33.323Z,1007.8
2019-01-08T00:48:34.685Z,1007.9
2019-01-08T00:49:36.047Z,1007.8
2019-01-08T00:50:37.412Z,1007.8
2019-01-08T00:51:38.778Z,1007.9
2019-01-08T00:52:40.146Z,1007.9
2019-01-08T00:53:41.515Z,1007.9
2019-01-08T00:54:42.869Z,1007.9
2019-01-08T00:55:44.236Z,1007.8
2019-01-08T00:56:45.598Z,1007.8
2019-01-08T00:57:46.962Z,1007.8
2019-01-08T00:58:51.664Z,1007.8
2019-01-08T00:59:49.650Z,1007.8
2019-01-08T01:00:51.029Z,1007.8
2019-01-08T01:01:52.409Z,1007.8
2019-01-08T01:02:53.776Z,1007.7
2019-01-08T01:03:55.140Z,1007.7
2019-01-08T01:04:56.524Z,1007.8
2019-01-08T01:05:57.880Z,1007.8
2019-01-08T01:06:59.255Z,1007.7
2019-01-08T01:08:00.623Z,1007.8
2019-01-08T01:09:01.990Z,1007.7
2019-01-08T01:10:03.351Z,1007.7
2019-01-08T01:11:04.706Z,1007.7
2019-01-08T01:12:06.078Z,1007.7
2019-01-08T01:13:07.442Z,1007.7
2019-01-08T01:14:08.810Z,1007.7
2019-01-08T01:15:10.179Z,1007.7
2019-01-08T01:16:11.537Z,1007.7
2019-01-08T01:17:12.897Z,1007.6
2019-01-08T01:18:14.262Z,1007.7
2019-01-08T01:19:15.625Z,1007.7
2019-01-08T01:20:16.990Z,1007.7
2019-01-08T01:21:18.356Z,1007.7
2019-01-08T01:22:19.718Z,1007.7
2019-01-08T01:23:21.079Z,1007.7
2019-01-08T01:24:22.442Z,1007.7
2019-01-08T01:25:23.809Z,1007.7
2019-01-08T01:26:25.175Z,1007.7
2019-01-08T01:27:26.540Z,1007.7
2019-01-08T01:28:27.901Z,1007.7
2019-01-08T01:29:29.262Z,1007.7
2019-01-08T01:30:30.626Z,1007.7
2019-01-08T01:31:31.990Z,1007.6
2019-01-08T01:32:33.362Z,1007.6
2019-01-08T01:33:34.716Z,1007.7
2019-01-08T01:34:36.098Z,1007.7
2019-01-08T01:35:37.445Z,1007.6
2019-01-08T01:36:38.805Z,1007.7
2019-01-08T01:37:40.169Z,1007.6
2019-01-08T01:38:41.540Z,1007.6
2019-01-08T01:39:42.911Z,1007.6
2019-01-08T01:40:44.259Z,1007.7
2019-01-08T01:41:45.623Z,1007.7
2019-01-08T01:42:46.988Z,1007.7
2019-01-08T01:43:48.354Z,1007.7
2019-01-08T01:44:49.720Z,1007.6
2019-01-08T01:45:51.080Z,1007.6
2019-01-08T01:46:52.439Z,1007.7
2019-01-08T01:47:53.803Z,1007.6
2019-01-08T01:48:55.166Z,1007.7
2019-01-08T01:49:56.529Z,1007.6
2019-01-08T01:50:57.895Z,1007.6
2019-01-08T01:51:59.265Z,1007.6
2019-01-08T01:53:00.619Z,1007.6
2019-01-08T01:54:01.984Z,1007.6
2019-01-08T01:55:03.346Z,1007.6
2019-01-08T01:56:04.708Z,1007.6
2019-01-08T01:57:06.082Z,1007.6
2019-01-08T01:58:07.440Z,1007.7
2019-01-08T01:59:08.841Z,1007.6
2019-01-08T02:00:10.234Z,1007.6
2019-01-08T02:01:11.530Z,1007.6
2019-01-08T02:02:12.892Z,1007.6
2019-01-08T02:03:14.257Z,1007.5
2019-01-08T02:04:15.624Z,1007.7
2019-01-08T02:05:16.993Z,1007.6
2019-01-08T02:06:18.353Z,1007.6
2019-01-08T02:07:19.717Z,1007.6
2019-01-08T02:08:21.082Z,1007.6
2019-01-08T02:09:22.446Z,1007.6
2019-01-08T02:10:23.810Z,1007.6
2019-01-08T02:11:25.170Z,1007.6
2019-01-08T02:12:26.536Z,1007.6
2019-01-08T02:13:27.899Z,1007.6
2019-01-08T02:14:29.261Z,1007.6
2019-01-08T02:15:30.626Z,1007.6
2019-01-08T02:16:31.993Z,1007.5
2019-01-08T02:17:33.319Z,1007.5
2019-01-08T02:18:34.718Z,1007.5
2019-01-08T02:19:36.095Z,1007.5
2019-01-08T02:20:37.457Z,1007.4
2019-01-08T02:21:38.815Z,1007.4
2019-01-08T02:22:40.179Z,1007.4
2019-01-08T02:23:41.541Z,1007.4
2019-01-08T02:24:42.904Z,1007.3
2019-01-08T02:25:44.271Z,1007.4
2019-01-08T02:26:45.640Z,1007.4
2019-01-08T02:27:46.999Z,1007.4
2019-01-08T02:28:48.363Z,1007.4
2019-01-08T02:29:49.720Z,1007.3
2019-01-08T02:30:51.085Z,1007.4
2019-01-08T02:31:52.457Z,1007.3
2019-01-08T02:32:53.816Z,1007.3
2019-01-08T02:33:55.181Z,1007.3
2019-01-08T02:34:56.544Z,1007.4
2019-01-08T02:35:57.901Z,1007.3
2019-01-08T02:36:59.263Z,1007.4
2019-01-08T02:38:00.628Z,1007.3
2019-01-08T02:39:01.995Z,1007.3
2019-01-08T02:40:03.365Z,1007.3
2019-01-08T02:41:04.723Z,1007.3
2019-01-08T02:42:06.085Z,1007.3
2019-01-08T02:43:07.460Z,1007.3
2019-01-08T02:44:08.918Z,1007.2
2019-01-08T02:45:10.137Z,1007.2
2019-01-08T02:46:11.633Z,1007.2
2019-01-08T02:47:12.827Z,1007.2
2019-01-08T02:48:14.188Z,1007.2
2019-01-08T02:49:15.552Z,1007.3
2019-01-08T02:50:16.914Z,1007.2
2019-01-08T02:51:18.286Z,1007.2
2019-01-08T02:52:19.642Z,1007.2
2019-01-08T02:53:21.006Z,1007.1
2019-01-08T02:54:22.452Z,1007.1
2019-01-08T02:55:23.694Z,1007.2
2019-01-08T02:56:25.059Z,1007.1
2019-01-08T02:57:26.419Z,1007.1
2019-01-08T02:58:27.781Z,1007.1
2019-01-08T02:59:29.145Z,1007.1
2019-01-08T03:00:30.506Z,1007.1
2019-01-08T03:01:31.873Z,1007.1
2019-01-08T03:02:33.236Z,1007.1
2019-01-08T03:03:34.598Z,1007.0
2019-01-08T03:04:35.962Z,1007.0
2019-01-08T03:05:37.324Z,1007.0
2019-01-08T03:06:38.687Z,1007.0
2019-01-08T03:07:40.050Z,1006.9
2019-01-08T03:08:41.415Z,1006.8
2019-01-08T03:09:42.781Z,1006.9
2019-01-08T03:10:44.142Z,1006.9
2019-01-08T03:11:45.500Z,1006.9
2019-01-08T03:12:46.863Z,1006.9
2019-01-08T03:13:48.228Z,1006.9
2019-01-08T03:14:49.594Z,1006.9
2019-01-08T03:15:50.959Z,1006.8
2019-01-08T03:16:52.323Z,1006.8
2019-01-08T03:17:53.683Z,1006.8
2019-01-08T03:18:55.048Z,1006.8
2019-01-08T03:19:56.410Z,1006.8
2019-01-08T03:20:57.772Z,1006.7
2019-01-08T03:21:59.261Z,1006.7
2019-01-08T03:23:00.628Z,1006.7
2019-01-08T03:24:01.993Z,1006.7
2019-01-08T03:25:03.349Z,1006.6
2019-01-08T03:26:04.716Z,1006.6
2019-01-08T03:27:06.075Z,1006.6
2019-01-08T03:28:07.438Z,1006.5
2019-01-08T03:29:08.805Z,1006.6
2019-01-08T03:30:10.170Z,1006.6
2019-01-08T03:31:11.536Z,1006.5
2019-01-08T03:32:12.894Z,1006.5
2019-01-08T03:33:14.257Z,1006.6
2019-01-08T03:34:15.624Z,1006.5
2019-01-08T03:35:16.982Z,1006.5
2019-01-08T03:36:18.349Z,1006.5
2019-01-08T03:37:19.711Z,1006.5
2019-01-08T03:38:21.078Z,1006.5
2019-01-08T03:39:22.440Z,1006.5
2019-01-08T03:40:23.802Z,1006.4
2019-01-08T03:41:25.166Z,1006.4
2019-01-08T03:42:26.532Z,1006.3
2019-01-08T03:43:27.896Z,1006.3
2019-01-08T03:44:29.263Z,1006.4
2019-01-08T03:45:30.627Z,1006.3
2019-01-08T03:46:31.989Z,1006.2
2019-01-08T03:47:33.349Z,1006.3
2019-01-08T03:48:34.715Z,1006.3
2019-01-08T03:49:36.077Z,1006.2
2019-01-08T03:50:37.439Z,1006.1
2019-01-08T03:51:38.805Z,1006.1
2019-01-08T03:52:40.168Z,1006.1
2019-01-08T03:53:41.533Z,1006.1
2019-01-08T03:54:42.892Z,1006.1
2019-01-08T03:55:44.256Z,1006.1
2019-01-08T03:56:45.618Z,1006.1
2019-01-08T03:57:46.981Z,1006.1
2019-01-08T03:58:48.348Z,1006.1
2019-01-08T03:59:49.711Z,1006.1
2019-01-08T04:00:51.076Z,1006.1
2019-01-08T04:01:52.433Z,1006.0
2019-01-08T04:02:53.801Z,1006.0
2019-01-08T04:03:55.172Z,1005.9
2019-01-08T04:04:56.534Z,1005.9
2019-01-08T04:05:57.899Z,1005.9
2019-01-08T04:06:59.274Z,1005.9
2019-01-08T04:08:00.626Z,1005.9
2019-01-08T04:09:01.996Z,1005.9
2019-01-08T04:10:03.362Z,1005.8
2019-01-08T04:11:04.727Z,1005.8
2019-01-08T04:12:06.094Z,1005.8
2019-01-08T04:13:07.460Z,1005.7
2019-01-08T04:14:08.822Z,1005.7
2019-01-08T04:15:10.182Z,1005.7
2019-01-08T04:16:11.549Z,1005.7
2019-01-08T04:17:12.909Z,1005.7
2019-01-08T04:18:14.273Z,1005.7
2019-01-08T04:19:15.638Z,1005.7
2019-01-08T04:20:17.002Z,1005.6
2019-01-08T04:21:18.365Z,1005.7
2019-01-08T04:22:19.731Z,1005.7
2019-01-08T04:23:21.093Z,1005.6
2019-01-08T04:24:22.543Z,1005.6
2019-01-08T04:25:23.781Z,1005.6
2019-01-08T04:26:25.151Z,1005.6
2019-01-08T04:27:26.514Z,1005.5
2019-01-08T04:28:27.876Z,1005.5
2019-01-08T04:29:29.241Z,1005.6
2019-01-08T04:30:30.604Z,1005.5
2019-01-08T04:31:31.968Z,1005.4
2019-01-08T04:32:33.333Z,1005.4
2019-01-08T04:33:34.696Z,1005.4
2019-01-08T04:34:36.066Z,1005.4
2019-01-08T04:35:37.428Z,1005.4
2019-01-08T04:36:38.789Z,1005.3
2019-01-08T04:37:40.154Z,1005.3
2019-01-08T04:38:41.517Z,1005.3
2019-01-08T04:39:42.881Z,1005.3
2019-01-08T04:40:44.244Z,1005.4
2019-01-08T04:41:45.608Z,1005.3
2019-01-08T04:42:46.971Z,1005.3
2019-01-08T04:43:48.339Z,1005.3
2019-01-08T04:44:49.700Z,1005.3
2019-01-08T04:45:51.064Z,1005.1
2019-01-08T04:46:52.428Z,1005.2
2019-01-08T04:47:53.790Z,1005.2
2019-01-08T04:48:55.163Z,1005.2
2019-01-08T04:49:56.523Z,1005.1
2019-01-08T04:50:57.886Z,1005.1
2019-01-08T04:51:59.252Z,1005.1
2019-01-08T04:53:00.611Z,1005.1
2019-01-08T04:54:01.976Z,1005.0
2019-01-08T04:55:03.347Z,1004.9
2019-01-08T04:56:04.714Z,1004.8
2019-01-08T04:57:06.076Z,1004.8
2019-01-08T04:58:07.440Z,1004.9
2019-01-08T04:59:08.832Z,1004.8
2019-01-08T05:00:10.244Z,1004.9
2019-01-08T05:01:11.748Z,1004.8
2019-01-08T05:02:13.170Z,1004.7
2019-01-08T05:03:14.575Z,1004.7
2019-01-08T05:04:15.950Z,1004.7
2019-01-08T05:05:17.405Z,1004.7
2019-01-08T05:06:18.936Z,1004.6
2019-01-08T05:07:20.302Z,1004.7
2019-01-08T05:08:21.663Z,1004.6
2019-01-08T05:09:23.031Z,1004.6
2019-01-08T05:10:24.396Z,1004.6
2019-01-08T05:11:25.761Z,1004.5
2019-01-08T05:12:27.121Z,1004.5
2019-01-08T05:13:28.486Z,1004.5
2019-01-08T05:14:29.849Z,1004.5
2019-01-08T05:15:31.222Z,1004.4
2019-01-08T05:16:32.579Z,1004.4
2019-01-08T05:17:33.939Z,1004.5
2019-01-08T05:18:35.306Z,1004.5
2019-01-08T05:19:36.669Z,1004.4
2019-01-08T05:20:38.032Z,1004.4
2019-01-08T05:21:39.395Z,1004.5
2019-01-08T05:22:40.758Z,1004.4
2019-01-08T05:23:42.122Z,1004.5
2019-01-08T05:24:43.498Z,1004.5
2019-01-08T05:25:44.854Z,1004.4
2019-01-08T05:26:46.214Z,1004.3
2019-01-08T05:27:47.582Z,1004.5
2019-01-08T05:28:48.935Z,1004.3
2019-01-08T05:29:50.299Z,1004.4
2019-01-08T05:30:51.658Z,1004.3
2019-01-08T05:31:53.028Z,1004.4
2019-01-08T05:32:54.394Z,1004.2
2019-01-08T05:33:55.757Z,1004.3
2019-01-08T05:34:57.116Z,1004.3
2019-01-08T05:35:58.480Z,1004.4
2019-01-08T05:36:59.897Z,1004.3
2019-01-08T05:38:01.211Z,1004.4
2019-01-08T05:39:02.574Z,1004.3
2019-01-08T05:40:03.941Z,1004.5
2019-01-08T05:41:05.300Z,1004.4
2019-01-08T05:42:06.661Z,1004.5
2019-01-08T05:43:08.031Z,1004.5
2019-01-08T05:44:09.391Z,1004.3
2019-01-08T05:45:10.757Z,1004.4
2019-01-08T05:46:12.121Z,1004.4
2019-01-08T05:47:13.487Z,1004.4
2019-01-08T05:48:14.848Z,1004.5
2019-01-08T05:49:16.215Z,1004.5
2019-01-08T05:50:17.580Z,1004.6
2019-01-08T05:51:18.935Z,1004.6
2019-01-08T05:52:20.303Z,1004.5
2019-01-08T05:53:21.671Z,1004.2
2019-01-08T05:54:23.039Z,1004.3
2019-01-08T05:55:24.397Z,1004.2
2019-01-08T05:56:25.763Z,1004.3
2019-01-08T05:57:27.125Z,1004.0
2019-01-08T05:58:28.500Z,1004.2
2019-01-08T05:59:29.855Z,1004.3
2019-01-08T06:00:31.223Z,1004.4
2019-01-08T06:01:33.827Z,1004.4
2019-01-08T06:02:33.932Z,1004.4
2019-01-08T06:03:35.292Z,1004.4
2019-01-08T06:04:36.667Z,1004.4
2019-01-08T06:05:38.034Z,1004.4
2019-01-08T06:06:39.397Z,1004.4
2019-01-08T06:07:40.764Z,1004.3
2019-01-08T06:08:42.126Z,1004.3
2019-01-08T06:09:43.489Z,1004.3
2019-01-08T06:10:44.850Z,1004.3
2019-01-08T06:11:46.216Z,1004.2
2019-01-08T06:12:47.582Z,1004.3
2019-01-08T06:13:48.944Z,1004.3
2019-01-08T06:14:50.307Z,1004.3
2019-01-08T06:15:51.681Z,1004.2
2019-01-08T06:16:53.037Z,1004.2
2019-01-08T06:17:54.424Z,1004.2
2019-01-08T06:18:55.791Z,1004.1
2019-01-08T06:19:57.156Z,1004.1
2019-01-08T06:20:58.519Z,1004.1
2019-01-08T06:21:59.881Z,1004.1
2019-01-08T06:23:01.244Z,1004.1
2019-01-08T06:24:02.607Z,1004.1
2019-01-08T06:25:03.970Z,1004.1
2019-01-08T06:26:05.333Z,1004.1
2019-01-08T06:27:06.699Z,1004.2
2019-01-08T06:28:08.074Z,1004.1
2019-01-08T06:29:09.445Z,1004.1
2019-01-08T06:30:10.802Z,1004.1
2019-01-08T06:31:12.162Z,1004.1
2019-01-08T06:32:13.527Z,1004.0
2019-01-08T06:33:14.888Z,1004.1
2019-01-08T06:34:16.253Z,1004.1
2019-01-08T06:35:17.617Z,1004.1
2019-01-08T06:36:18.980Z,1004.2
2019-01-08T06:37:20.351Z,1004.2
2019-01-08T06:38:21.713Z,1004.1
2019-01-08T06:39:23.077Z,1004.1
2019-01-08T06:40:24.440Z,1004.0
2019-01-08T06:41:25.804Z,1004.1
2019-01-08T06:42:27.166Z,1004.1
2019-01-08T06:43:28.527Z,1004.1
2019-01-08T06:44:29.896Z,1004.1
2019-01-08T06:45:31.261Z,1004.1
2019-01-08T06:46:32.624Z,1004.1
2019-01-08T06:47:33.987Z,1004.2
2019-01-08T06:48:35.349Z,1004.1
2019-01-08T06:49:36.712Z,1004.1
2019-01-08T06:50:38.077Z,1004.0
2019-01-08T06:51:39.441Z,1004.0
2019-01-08T06:52:40.804Z,1004.0
2019-01-08T06:53:42.169Z,1004.0
2019-01-08T06:54:43.534Z,1004.0
2019-01-08T06:55:44.896Z,1004.0
2019-01-08T06:56:46.262Z,1004.0
2019-01-08T06:57:47.628Z,1004.0
2019-01-08T06:58:48.988Z,1004.0
2019-01-08T06:59:50.349Z,1004.0
2019-01-08T07:00:51.709Z,1004.0
2019-01-08T07:01:53.075Z,1003.9
2019-01-08T07:02:54.438Z,1003.9
2019-01-08T07:03:55.804Z,1003.9
2019-01-08T07:04:57.169Z,1003.9
2019-01-08T07:05:58.533Z,1003.9
2019-01-08T07:06:59.897Z,1003.9
2019-01-08T07:08:01.257Z,1003.9
2019-01-08T07:09:02.621Z,1003.8
2019-01-08T07:10:03.985Z,1003.9
2019-01-08T07:11:05.347Z,1003.8
2019-01-08T07:12:06.714Z,1003.9
2019-01-08T07:13:08.077Z,1003.9
2019-01-08T07:14:09.442Z,1003.8
2019-01-08T07:15:10.806Z,1003.8
2019-01-08T07:16:12.164Z,1003.9
2019-01-08T07:17:13.538Z,1003.8
2019-01-08T07:18:14.897Z,1003.8
2019-01-08T07:19:16.266Z,1003.8
2019-01-08T07:20:17.633Z,1003.7
2019-01-08T07:21:18.991Z,1003.8
2019-01-08T07:22:20.350Z,1003.7
2019-01-08T07:23:21.719Z,1003.8
2019-01-08T07:24:23.081Z,1003.8
2019-01-08T07:25:24.449Z,1003.8
2019-01-08T07:26:25.808Z,1003.8
2019-01-08T07:27:27.178Z,1003.8
2019-01-08T07:28:29.329Z,1003.7
2019-01-08T07:29:29.877Z,1003.9
2019-01-08T07:30:31.239Z,1003.8
2019-01-08T07:31:32.601Z,1003.8
2019-01-08T07:32:33.967Z,1003.8
2019-01-08T07:33:35.335Z,1003.8
2019-01-08T07:34:36.696Z,1003.8
2019-01-08T07:35:38.064Z,1003.8
2019-01-08T07:36:39.425Z,1003.7
2019-01-08T07:37:40.789Z,1003.8
2019-01-08T07:38:42.161Z,1003.9
2019-01-08T07:39:43.524Z,1003.9
2019-01-08T07:40:44.883Z,1003.8
2019-01-08T07:41:46.256Z,1003.8
2019-01-08T07:42:47.624Z,1003.7
2019-01-08T07:43:48.995Z,1003.7
2019-01-08T07:44:50.359Z,1003.7
2019-01-08T07:45:51.722Z,1003.7
2019-01-08T07:46:53.099Z,1003.7
2019-01-08T07:47:54.466Z,1003.7
2019-01-08T07:48:55.833Z,1003.7
2019-01-08T07:49:57.198Z,1003.7
2019-01-08T07:50:58.567Z,1003.6
2019-01-08T07:51:59.931Z,1003.6
2019-01-08T07:53:01.298Z,1003.6
2019-01-08T07:54:02.666Z,1003.7
2019-01-08T07:55:04.036Z,1003.7
2019-01-08T07:56:05.400Z,1003.6
2019-01-08T07:57:06.766Z,1003.7
2019-01-08T07:58:08.141Z,1003.6
2019-01-08T07:59:09.512Z,1003.6
2019-01-08T08:00:10.875Z,1003.6
2019-01-08T08:01:12.238Z,1003.6
2019-01-08T08:02:13.615Z,1003.6
2019-01-08T08:03:14.976Z,1003.7
2019-01-08T08:04:16.344Z,1003.6
2019-01-08T08:05:17.709Z,1003.7
2019-01-08T08:06:19.077Z,1003.7
2019-01-08T08:07:20.407Z,1003.5
2019-01-08T08:08:21.776Z,1003.6
2019-01-08T08:09:23.144Z,1003.6
2019-01-08T08:10:24.515Z,1003.5
2019-01-08T08:11:25.842Z,1003.6
2019-01-08T08:12:27.209Z,1003.5
2019-01-08T08:13:28.571Z,1003.5
2019-01-08T08:14:29.947Z,1003.5
2019-01-08T08:15:31.312Z,1003.4
2019-01-08T08:16:32.675Z,1003.4
2019-01-08T08:17:34.049Z,1003.4
2019-01-08T08:18:35.415Z,1003.3
2019-01-08T08:19:36.779Z,1003.3
2019-01-08T08:20:38.149Z,1003.3
2019-01-08T08:21:39.515Z,1003.4
2019-01-08T08:22:40.882Z,1003.2
2019-01-08T08:23:42.250Z,1003.2
2019-01-08T08:24:43.620Z,1003.2
2019-01-08T08:25:44.982Z,1003.2
2019-01-08T08:26:46.348Z,1003.1
2019-01-08T08:27:47.715Z,1003.2
2019-01-08T08:28:49.081Z,1003.1
2019-01-08T08:29:50.451Z,1003.1
2019-01-08T08:30:58.684Z,1003.1
2019-01-08T08:31:53.151Z,1003.2
2019-01-08T08:32:54.508Z,1003.1
2019-01-08T08:33:55.879Z,1003.0
2019-01-08T08:34:57.246Z,1003.0
2019-01-08T08:35:58.615Z,1002.9
2019-01-08T08:36:59.981Z,1003.0
2019-01-08T08:38:01.348Z,1003.0
2019-01-08T08:39:02.720Z,1003.0
2019-01-08T08:40:04.082Z,1003.0
2019-01-08T08:41:05.448Z,1002.9
2019-01-08T08:42:06.815Z,1002.9
2019-01-08T08:43:08.178Z,1002.9
2019-01-08T08:44:09.549Z,1002.9
2019-01-08T08:45:10.921Z,1002.9
2019-01-08T08:46:12.288Z,1003.0
2019-01-08T08:47:13.654Z,1003.0
2019-01-08T08:48:15.025Z,1002.9
2019-01-08T08:49:16.389Z,1002.9
2019-01-08T08:50:17.752Z,1002.9
2019-01-08T08:51:19.126Z,1002.9
2019-01-08T08:52:20.496Z,1002.9
2019-01-08T08:53:21.869Z,1002.9
2019-01-08T08:54:23.226Z,1002.9
2019-01-08T08:55:24.592Z,1003.0
2019-01-08T08:56:25.962Z,1002.9
2019-01-08T08:57:27.327Z,1003.0
2019-01-08T08:58:28.693Z,1002.9
2019-01-08T08:59:30.062Z,1002.9
2019-01-08T09:00:31.434Z,1003.0
2019-01-08T09:01:32.795Z,1003.0
2019-01-08T09:02:34.160Z,1003.2
2019-01-08T09:03:35.529Z,1003.1
2019-01-08T09:04:36.899Z,1003.1
2019-01-08T09:05:38.263Z,1003.0
2019-01-08T09:06:39.628Z,1003.1
2019-01-08T09:07:41.001Z,1003.1
2019-01-08T09:08:42.367Z,1003.0
2019-01-08T09:09:43.736Z,1003.1
2019-01-08T09:10:45.101Z,1003.0
2019-01-08T09:11:46.473Z,1003.1
2019-01-08T09:12:47.845Z,1003.2
2019-01-08T09:13:49.208Z,1003.1
2019-01-08T09:14:50.578Z,1003.2
2019-01-08T09:15:51.952Z,1003.0
2019-01-08T09:16:53.321Z,1003.0
2019-01-08T09:17:54.676Z,1003.0
2019-01-08T09:18:56.044Z,1003.1
2019-01-08T09:19:57.413Z,1003.0
2019-01-08T09:20:58.780Z,1003.1
2019-01-08T09:22:00.145Z,1003.0
2019-01-08T09:23:01.516Z,1003.0
2019-01-08T09:24:02.883Z,1003.0
2019-01-08T09:25:04.249Z,1002.9
2019-01-08T09:26:05.625Z,1003.0
2019-01-08T09:27:06.996Z,1003.0
2019-01-08T09:28:08.361Z,1003.0
2019-01-08T09:29:09.731Z,1002.9
2019-01-08T09:30:11.098Z,1003.0
2019-01-08T09:31:15.550Z,1002.9
2019-01-08T09:32:13.796Z,1003.0
2019-01-08T09:33:15.175Z,1003.0
2019-01-08T09:34:16.595Z,1003.0
2019-01-08T09:35:17.968Z,1002.9
2019-01-08T09:36:19.334Z,1003.1
2019-01-08T09:37:20.701Z,1003.1
2019-01-08T09:38:22.071Z,1003.1
2019-01-08T09:39:23.438Z,1003.2
2019-01-08T09:40:24.805Z,1003.2
2019-01-08T09:41:26.176Z,1003.0
2019-01-08T09:42:27.544Z,1003.1
2019-01-08T09:43:28.914Z,1003.1
2019-01-08T09:44:30.279Z,1003.0
2019-01-08T09:45:31.645Z,1003.1
2019-01-08T09:46:33.017Z,1003.1
2019-01-08T09:47:34.383Z,1003.2
2019-01-08T09:48:35.759Z,1003.1
2019-01-08T09:49:37.127Z,1003.2
2019-01-08T09:50:38.498Z,1003.1
2019-01-08T09:51:39.862Z,1003.1
2019-01-08T09:52:41.232Z,1003.1
2019-01-08T09:53:42.596Z,1003.1
2019-01-08T09:54:43.962Z,1003.1
2019-01-08T09:55:45.333Z,1003.2
2019-01-08T09:56:46.704Z,1003.2
2019-01-08T09:57:48.070Z,1003.2
2019-01-08T09:58:49.431Z,1003.1
2019-01-08T09:59:50.850Z,1003.2
2019-01-08T10:00:52.182Z,1003.2
2019-01-08T10:01:53.553Z,1003.0
2019-01-08T10:02:54.883Z,1003.1
2019-01-08T10:03:56.265Z,1003.2
2019-01-08T10:04:57.647Z,1003.2
2019-01-08T10:05:59.063Z,1003.1
2019-01-08T10:07:00.474Z,1003.2
2019-01-08T10:08:01.872Z,1003.1
2019-01-08T10:09:03.301Z,1003.1
2019-01-08T10:10:04.802Z,1003.1
2019-01-08T10:11:07.376Z,1003.1
2019-01-08T10:12:07.597Z,1003.1
2019-01-08T10:13:09.016Z,1003.0
2019-01-08T10:14:10.424Z,1003.0
2019-01-08T10:15:11.813Z,1002.9
2019-01-08T10:16:13.271Z,1003.0
2019-01-08T10:17:14.678Z,1003.0
2019-01-08T10:18:16.053Z,1003.0
2019-01-08T10:19:17.498Z,1003.1
2019-01-08T10:20:18.904Z,1003.0
2019-01-08T10:21:20.285Z,1003.0
2019-01-08T10:22:21.679Z,1003.0
2019-01-08T10:23:23.105Z,1003.0
2019-01-08T10:24:24.495Z,1003.1
2019-01-08T10:25:25.979Z,1003.1
2019-01-08T10:26:27.369Z,1002.9
2019-01-08T10:27:28.776Z,1002.8
2019-01-08T10:28:30.228Z,1002.9
2019-01-08T10:29:31.622Z,1002.9
2019-01-08T10:30:33.045Z,1002.9
2019-01-08T10:31:34.471Z,1002.9
2019-01-08T10:32:35.867Z,1002.9
2019-01-08T10:33:37.256Z,1002.9
2019-01-08T10:34:38.688Z,1002.8
2019-01-08T10:35:40.071Z,1002.8
2019-01-08T10:36:41.507Z,1002.7
2019-01-08T10:37:42.925Z,1002.8
2019-01-08T10:38:44.347Z,1002.8
2019-01-08T10:39:45.776Z,1002.8
2019-01-08T10:40:47.313Z,1002.8
2019-01-08T10:41:48.671Z,1002.7
2019-01-08T10:42:50.076Z,1002.7
2019-01-08T10:43:51.464Z,1002.8
2019-01-08T10:44:52.849Z,1002.8
2019-01-08T10:45:54.253Z,1002.8
2019-01-08T10:46:55.644Z,1002.8
2019-01-08T10:47:57.045Z,1002.8
2019-01-08T10:48:58.509Z,1002.7
2019-01-08T10:49:59.891Z,1002.6
2019-01-08T10:51:01.280Z,1002.7
2019-01-08T10:52:02.674Z,1002.7
2019-01-08T10:53:04.081Z,1002.6
2019-01-08T10:54:05.500Z,1002.6
2019-01-08T10:55:06.899Z,1002.6
2019-01-08T10:56:08.299Z,1002.7
2019-01-08T10:57:09.723Z,1002.8
2019-01-08T10:58:11.119Z,1002.7
2019-01-08T10:59:12.541Z,1002.6
2019-01-08T11:00:13.975Z,1002.6
2019-01-08T11:01:15.404Z,1002.7
2019-01-08T11:02:16.809Z,1002.6
2019-01-08T11:03:18.227Z,1002.7
2019-01-08T11:04:19.655Z,1002.6
2019-01-08T11:05:21.040Z,1002.6
2019-01-08T11:06:22.475Z,1002.6
2019-01-08T11:07:23.870Z,1002.6
2019-01-08T11:08:25.277Z,1002.6
2019-01-08T11:09:26.669Z,1002.5
2019-01-08T11:10:28.082Z,1002.5
2019-01-08T11:11:29.519Z,1002.5
2019-01-08T11:12:30.931Z,1002.5
2019-01-08T11:13:32.337Z,1002.5
2019-01-08T11:14:33.749Z,1002.5
2019-01-08T11:15:35.164Z,1002.5
2019-01-08T11:16:36.592Z,1002.5
2019-01-08T11:17:37.998Z,1002.5
2019-01-08T11:18:39.456Z,1002.5
2019-01-08T11:19:40.874Z,1002.5
2019-01-08T11:20:42.301Z,1002.3
2019-01-08T11:21:43.707Z,1002.4
2019-01-08T11:22:45.111Z,1002.3
2019-01-08T11:23:46.520Z,1002.3
2019-01-08T11:24:47.966Z,1002.5
2019-01-08T11:25:49.350Z,1002.4
2019-01-08T11:26:50.753Z,1002.4
2019-01-08T11:27:52.145Z,1002.3
2019-01-08T11:28:53.638Z,1002.4
2019-01-08T11:29:55.042Z,1002.5
2019-01-08T11:30:56.428Z,1002.5
2019-01-08T11:31:57.820Z,1002.4
2019-01-08T11:32:59.206Z,1002.3
2019-01-08T11:34:00.612Z,1002.4
2019-01-08T11:35:02.003Z,1002.4
2019-01-08T11:36:03.384Z,1002.4
2019-01-08T11:37:04.832Z,1002.5
2019-01-08T11:38:06.244Z,1002.4
2019-01-08T11:39:07.667Z,1002.3
2019-01-08T11:40:09.086Z,1002.3
2019-01-08T11:41:10.468Z,1002.4
2019-01-08T11:42:11.868Z,1002.4
2019-01-08T11:43:13.252Z,1002.4
2019-01-08T11:44:14.661Z,1002.4
2019-01-08T11:45:16.083Z,1002.5
2019-01-08T11:46:17.466Z,1002.5
2019-01-08T11:47:18.910Z,1002.6
2019-01-08T11:48:20.393Z,1002.7
2019-01-08T11:49:21.826Z,1002.8
2019-01-08T11:50:23.282Z,1002.9
2019-01-08T11:51:24.660Z,1002.7
2019-01-08T11:52:26.084Z,1002.6
2019-01-08T11:53:27.491Z,1002.6
2019-01-08T11:54:28.908Z,1002.7
2019-01-08T11:55:30.299Z,1002.7
2019-01-08T11:56:31.707Z,1002.6
2019-01-08T11:57:33.111Z,1002.7
2019-01-08T11:58:34.529Z,1002.7
2019-01-08T11:59:35.924Z,1002.7
2019-01-08T12:00:37.320Z,1002.7
2019-01-08T12:01:38.736Z,1002.8
2019-01-08T12:02:47.606Z,1002.8
2019-01-08T12:03:41.478Z,1002.8
2019-01-08T12:04:42.859Z,1002.8
2019-01-08T12:05:44.257Z,1002.8
2019-01-08T12:06:45.645Z,1002.7
2019-01-08T12:07:47.055Z,1002.7
2019-01-08T12:08:48.444Z,1002.7
2019-01-08T12:09:49.830Z,1002.8
2019-01-08T12:10:51.221Z,1002.7
2019-01-08T12:11:52.617Z,1002.7
2019-01-08T12:12:53.991Z,1002.7
2019-01-08T12:13:55.370Z,1002.7
2019-01-08T12:14:56.730Z,1002.7
2019-01-08T12:15:58.097Z,1002.8
2019-01-08T12:16:59.466Z,1002.8
2019-01-08T12:18:00.837Z,1002.8
2019-01-08T12:19:02.211Z,1002.7
2019-01-08T12:20:03.582Z,1002.7
2019-01-08T12:21:04.959Z,1002.7
2019-01-08T12:22:06.325Z,1002.6
2019-01-08T12:23:07.693Z,1002.6
2019-01-08T12:24:09.060Z,1002.7
2019-01-08T12:25:10.433Z,1002.6
2019-01-08T12:26:11.804Z,1002.5
2019-01-08T12:27:13.174Z,1002.5
2019-01-08T12:28:14.553Z,1002.6
2019-01-08T12:29:15.913Z,1002.5
2019-01-08T12:30:17.278Z,1002.6
2019-01-08T12:31:18.651Z,1002.5
2019-01-08T12:32:20.027Z,1002.7
2019-01-08T12:33:21.395Z,1002.6
2019-01-08T12:34:22.766Z,1002.6
2019-01-08T12:35:24.136Z,1002.6
2019-01-08T12:36:25.500Z,1002.6
2019-01-08T12:37:26.871Z,1002.6
2019-01-08T12:38:28.246Z,1002.6
2019-01-08T12:39:29.617Z,1002.6
2019-01-08T12:40:30.988Z,1002.6
2019-01-08T12:41:32.358Z,1002.6
2019-01-08T12:42:33.726Z,1002.6
2019-01-08T12:43:35.093Z,1002.6
2019-01-08T12:44:36.475Z,1002.6
2019-01-08T12:45:37.833Z,1002.6